Terminal Aerodrome Forecast
Issued by NWS Memphis, TN

Home | Current Version | Previous Version | Text Only | Print | Product List | Glossary On
Versions: 1 2 3 4 5 6 7 8 9 10 11 12 13 14 15 16 17 18 19 20 21 22 23 24 25 26 27 28 29
979
FTUS44 KMEG 260521
TAFMEM
TAF
KMEM 260521Z 2606/2706 17009KT P6SM SCT250
     FM261200 19014G22KT P6SM BKN250
     FM261600 20018G28KT P6SM FEW040 BKN250
     FM262300 20012G19KT P6SM BKN040 BKN200
     FM270300 20010KT P6SM SCT015 OVC035 WS020/23045KT=

USA.gov is the U.S. government's official web portal to all federal, state and local government web resources and services.